Time;durP1;ratioP1;P1;durP2;ratioP2;P2;SDS_P1;SDS_P2;PMS_P1;PMS_P2;Temp;Humidity;BMP_temperature;BMP_pressure;BME280_temperature;BME280_humidity;BME280_pressure;Samples;Min_cycle;Max_cycle;Signal;HPM_P1;HPM_P2
2022/08/10 00:02:25;;;;;;;3.03;2.73;;;19.30;81.00;;;;;;4936765;28;20258;-85
2022/08/10 00:04:50;;;;;;;3.17;2.97;;;19.10;80.60;;;;;;4917180;28;20438;-85
2022/08/10 00:07:17;;;;;;;3.63;3.37;;;19.10;80.80;;;;;;4937194;28;20227;-86
2022/08/10 00:09:42;;;;;;;3.70;3.50;;;19.10;81.00;;;;;;4931511;28;20212;-88
2022/08/10 00:12:08;;;;;;;3.90;3.60;;;19.10;80.80;;;;;;4917421;28;20545;-85
2022/08/10 00:14:34;;;;;;;3.40;3.20;;;19.20;80.90;;;;;;4921122;28;20624;-85
2022/08/10 00:16:59;;;;;;;5.70;2.90;;;19.20;80.30;;;;;;4917889;28;20616;-85
2022/08/10 00:19:25;;;;;;;3.90;3.37;;;19.30;80.30;;;;;;4928183;28;20193;-85
2022/08/10 00:21:50;;;;;;;3.27;2.97;;;19.20;80.70;;;;;;4912925;28;20195;-85
2022/08/10 00:24:16;;;;;;;3.00;2.90;;;19.20;80.50;;;;;;4918555;28;20187;-86
2022/08/10 00:26:42;;;;;;;3.30;3.10;;;19.40;80.50;;;;;;4927044;28;20284;-86
2022/08/10 00:29:07;;;;;;;3.30;3.10;;;19.30;81.00;;;;;;4932683;28;20199;-86
2022/08/10 00:31:33;;;;;;;3.67;3.37;;;19.20;82.10;;;;;;4928190;28;20187;-85
2022/08/10 00:33:59;;;;;;;3.40;3.20;;;19.10;82.70;;;;;;4937358;28;20573;-85
2022/08/10 00:36:24;;;;;;;3.13;2.93;;;19.00;82.30;;;;;;4913043;28;20950;-85
2022/08/10 00:38:50;;;;;;;3.80;3.50;;;19.10;82.60;;;;;;4931666;28;20442;-85
2022/08/10 00:41:15;;;;;;;3.27;3.07;;;19.00;83.20;;;;;;4923937;28;20349;-85
2022/08/10 00:43:41;;;;;;;3.30;3.00;;;19.00;83.20;;;;;;4931039;28;20673;-86
2022/08/10 00:46:06;;;;;;;4.57;3.43;;;19.00;83.30;;;;;;4930224;28;20236;-85
2022/08/10 00:48:32;;;;;;;3.10;2.83;;;19.00;83.60;;;;;;4915505;28;20239;-85
2022/08/10 00:50:59;;;;;;;3.50;3.30;;;18.90;83.80;;;;;;4936296;28;20286;-85
2022/08/10 00:53:26;;;;;;;3.37;3.17;;;18.90;83.80;;;;;;4937135;28;20202;-86
2022/08/10 00:55:52;;;;;;;3.10;3.00;;;18.90;84.40;;;;;;4919119;28;20463;-87
2022/08/10 00:58:18;;;;;;;3.40;3.20;;;18.80;84.40;;;;;;4924786;28;20459;-86
2022/08/10 01:00:46;;;;;;;3.23;3.03;;;18.90;84.90;;;;;;4924705;28;20994;-86
2022/08/10 01:03:12;;;;;;;3.53;3.27;;;18.90;85.00;;;;;;4934074;28;20528;-86
2022/08/10 01:05:48;;;;;;;3.20;3.03;;;18.90;85.50;;;;;;4937435;28;20505;-85
2022/08/10 01:08:33;;;;;;;3.77;3.40;;;18.90;85.60;;;;;;4936929;28;21392;-85
2022/08/10 01:11:07;;;;;;;3.53;3.23;;;18.90;85.20;;;;;;4935922;28;20446;-85
2022/08/10 01:14:05;;;;;;;3.20;2.90;;;19.00;85.80;;;;;;4922703;28;20514;-86
2022/08/10 01:16:59;;;;;;;3.30;3.10;;;19.00;85.10;;;;;;4916627;28;20539;-86
2022/08/10 01:20:01;;;;;;;4.23;2.87;;;18.90;85.20;;;;;;4921346;28;20542;-87
2022/08/10 01:22:37;;;;;;;3.70;3.40;;;18.90;85.90;;;;;;4921520;28;21021;-87
2022/08/10 01:25:21;;;;;;;3.53;3.30;;;18.70;86.90;;;;;;4927074;28;20448;-87
2022/08/10 01:27:57;;;;;;;3.30;3.10;;;18.60;87.90;;;;;;4950633;28;20448;-87
2022/08/10 01:30:27;;;;;;;3.27;3.07;;;18.50;88.10;;;;;;4939498;28;20481;-86
2022/08/10 01:33:06;;;;;;;3.73;3.43;;;18.60;87.90;;;;;;4937468;28;20433;-87
2022/08/10 01:36:00;;;;;;;4.10;3.67;;;18.60;88.60;;;;;;4937045;28;20463;-88
2022/08/10 01:38:47;;;;;;;3.70;3.40;;;18.50;88.50;;;;;;4919885;28;20448;-88
2022/08/10 01:41:28;;;;;;;3.63;3.33;;;18.50;89.10;;;;;;4936032;28;20496;-89
2022/08/10 01:44:46;;;;;;;3.50;3.30;;;18.40;89.50;;;;;;4938159;28;20493;-88
2022/08/10 01:50:11;;;;;;;3.00;2.80;;;18.40;90.30;;;;;;4942475;28;20499;-88
2022/08/10 01:52:41;;;;;;;3.87;3.63;;;18.30;90.50;;;;;;4938665;28;21124;-87
2022/08/10 01:55:12;;;;;;;3.77;3.50;;;18.30;90.70;;;;;;4935968;28;20787;-87
2022/08/10 01:57:41;;;;;;;3.40;3.20;;;18.30;90.70;;;;;;4937538;28;20447;-87
2022/08/10 02:00:08;;;;;;;3.50;3.30;;;18.30;91.00;;;;;;4934316;28;20479;-87
2022/08/10 02:02:36;;;;;;;3.60;3.30;;;18.20;91.10;;;;;;4923002;28;20805;-87
2022/08/10 02:05:06;;;;;;;3.30;3.10;;;18.20;91.50;;;;;;4927744;28;20472;-88
2022/08/10 02:07:34;;;;;;;3.80;3.50;;;18.20;91.90;;;;;;4918648;28;20443;-87
2022/08/10 02:10:04;;;;;;;3.87;3.57;;;18.20;91.60;;;;;;4922839;28;20518;-87
2022/08/10 02:12:32;;;;;;;4.10;3.83;;;18.20;92.00;;;;;;4932858;28;20525;-87
2022/08/10 02:15:05;;;;;;;4.00;3.70;;;18.10;92.30;;;;;;4921159;28;20855;-87
2022/08/10 02:17:36;;;;;;;4.73;4.13;;;18.00;92.30;;;;;;4921885;28;20444;-88
2022/08/10 02:20:07;;;;;;;3.90;3.60;;;18.10;92.60;;;;;;4924361;28;20463;-87
2022/08/10 02:22:34;;;;;;;4.07;3.77;;;18.10;92.60;;;;;;4917693;28;20462;-86
2022/08/10 02:25:01;;;;;;;3.53;3.23;;;18.10;92.70;;;;;;4934301;28;20446;-87
2022/08/10 02:27:30;;;;;;;4.00;3.80;;;18.10;92.90;;;;;;4917580;28;20458;-87
2022/08/10 02:29:57;;;;;;;3.60;3.40;;;18.00;93.10;;;;;;4925928;28;20484;-87
2022/08/10 02:32:25;;;;;;;4.03;3.83;;;18.00;93.20;;;;;;4939419;28;20505;-87
2022/08/10 02:34:53;;;;;;;4.00;3.63;;;18.00;93.30;;;;;;4921849;28;20442;-88
2022/08/10 02:37:23;;;;;;;4.23;3.90;;;18.00;93.40;;;;;;4939359;28;20447;-87
2022/08/10 02:39:49;;;;;;;4.17;3.80;;;17.90;93.70;;;;;;4923215;28;20783;-88
2022/08/10 02:42:23;;;;;;;3.90;3.60;;;17.90;93.80;;;;;;4925075;28;20824;-87
2022/08/10 02:44:55;;;;;;;3.43;3.23;;;17.90;93.80;;;;;;4916367;28;20212;-88
2022/08/10 02:47:34;;;;;;;3.70;3.40;;;18.30;94.00;;;;;;4938584;28;20534;-87
2022/08/10 02:50:09;;;;;;;4.27;4.00;;;18.10;93.80;;;;;;4917137;28;20542;-87
2022/08/10 02:52:49;;;;;;;4.07;3.73;;;18.20;93.60;;;;;;4918032;28;20454;-87
2022/08/10 02:55:43;;;;;;;3.87;3.57;;;18.20;93.30;;;;;;4922594;28;20975;-88
2022/08/10 02:58:13;;;;;;;3.70;3.40;;;18.20;93.30;;;;;;4940141;28;20463;-87
2022/08/10 03:00:54;;;;;;;4.20;3.90;;;18.10;93.40;;;;;;4918681;28;20477;-88
2022/08/10 03:03:29;;;;;;;3.67;3.47;;;18.00;93.80;;;;;;4919700;28;20531;-88
2022/08/10 03:06:19;;;;;;;4.07;3.77;;;17.90;94.10;;;;;;4934846;28;20492;-89
2022/08/10 03:08:49;;;;;;;3.90;3.60;;;17.90;94.30;;;;;;4913508;28;20587;-89
2022/08/10 03:11:24;;;;;;;3.97;3.57;;;18.00;94.10;;;;;;4935132;28;20454;-89
2022/08/10 03:13:52;;;;;;;3.87;3.67;;;17.90;94.30;;;;;;4924580;28;20442;-88
2022/08/10 03:16:45;;;;;;;5.57;4.43;;;18.20;94.20;;;;;;4923550;28;20454;-88
2022/08/10 03:19:19;;;;;;;3.20;3.00;;;17.90;94.40;;;;;;4939732;28;20471;-88
2022/08/10 03:21:47;;;;;;;3.90;3.60;;;17.90;94.80;;;;;;4932525;28;20998;-87
2022/08/10 03:24:13;;;;;;;3.90;3.60;;;17.80;94.90;;;;;;4931835;28;21589;-86
2022/08/10 03:26:40;;;;;;;4.10;3.80;;;17.60;95.40;;;;;;4930996;28;20459;-86
2022/08/10 03:29:07;;;;;;;4.47;4.17;;;17.60;95.70;;;;;;4936463;28;20449;-86
2022/08/10 03:31:33;;;;;;;6.20;4.23;;;17.50;96.10;;;;;;4928822;28;20451;-87
2022/08/10 03:34:01;;;;;;;4.50;4.30;;;17.50;96.30;;;;;;4921541;28;20800;-86
2022/08/10 03:36:27;;;;;;;4.17;3.87;;;17.50;96.20;;;;;;4917555;28;20905;-87
2022/08/10 03:38:52;;;;;;;3.50;3.30;;;17.50;96.50;;;;;;4930008;28;20656;-86
2022/08/10 03:41:28;;;;;;;4.67;4.27;;;17.50;96.50;;;;;;4914956;28;20274;-87
2022/08/10 03:43:55;;;;;;;4.07;3.77;;;17.60;96.70;;;;;;4922737;28;20442;-87
2022/08/10 03:46:23;;;;;;;4.33;4.00;;;17.50;97.00;;;;;;4932620;28;20542;-87
2022/08/10 03:48:52;;;;;;;3.97;3.77;;;17.50;97.60;;;;;;4931477;28;20516;-86
2022/08/10 03:51:19;;;;;;;4.00;3.80;;;17.30;98.30;;;;;;4934088;28;20486;-87
2022/08/10 03:53:47;;;;;;;4.30;4.00;;;17.50;98.80;;;;;;4918177;28;21377;-88
2022/08/10 03:56:13;;;;;;;4.23;3.97;;;17.10;98.80;;;;;;4936194;28;20813;-87
2022/08/10 03:58:38;;;;;;;4.47;3.63;;;17.00;99.10;;;;;;4919944;28;20460;-87
2022/08/10 04:01:08;;;;;;;4.60;4.30;;;16.90;99.60;;;;;;4914456;28;20487;-87
2022/08/10 04:03:34;;;;;;;4.43;4.13;;;16.80;99.90;;;;;;4915826;28;20255;-87
2022/08/10 04:06:00;;;;;;;4.27;3.97;;;17.00;99.90;;;;;;4938462;28;20558;-87
2022/08/10 04:08:27;;;;;;;4.23;3.90;;;16.80;99.90;;;;;;4915909;28;20208;-87
2022/08/10 04:10:54;;;;;;;4.57;4.23;;;16.70;99.90;;;;;;4926225;28;20486;-87
2022/08/10 04:13:21;;;;;;;4.97;4.50;;;16.80;99.90;;;;;;4920533;28;20443;-87
2022/08/10 04:15:47;;;;;;;4.23;3.83;;;16.80;99.90;;;;;;4914086;28;20450;-88
2022/08/10 04:18:12;;;;;;;4.00;3.70;;;16.80;99.90;;;;;;4919970;28;20443;-86
2022/08/10 04:20:46;;;;;;;4.07;3.87;;;16.80;99.90;;;;;;4916862;28;20309;-86
2022/08/10 04:23:17;;;;;;;4.60;4.20;;;16.80;99.90;;;;;;4922487;28;20187;-87
2022/08/10 04:25:48;;;;;;;4.20;4.00;;;16.90;99.90;;;;;;4932708;28;20434;-87
2022/08/10 04:28:15;;;;;;;4.03;3.83;;;16.90;99.90;;;;;;4914926;28;20541;-86
2022/08/10 04:30:53;;;;;;;4.07;3.60;;;17.00;99.90;;;;;;4925852;28;20529;-87
2022/08/10 04:33:22;;;;;;;4.13;3.83;;;17.00;99.90;;;;;;4926125;28;20475;-86
2022/08/10 04:35:49;;;;;;;3.93;3.57;;;17.10;99.90;;;;;;4918168;28;20742;-84
2022/08/10 04:38:21;;;;;;;4.17;3.87;;;16.90;99.90;;;;;;4932591;28;20449;-85
2022/08/10 04:40:50;;;;;;;4.40;4.13;;;17.00;99.90;;;;;;4920056;28;20485;-86
2022/08/10 04:43:30;;;;;;;3.97;3.77;;;17.00;99.90;;;;;;4931002;28;20457;-88
2022/08/10 04:45:55;;;;;;;4.70;4.40;;;16.90;99.90;;;;;;4939577;28;20477;-89
2022/08/10 04:48:31;;;;;;;4.40;4.10;;;16.90;99.90;;;;;;4944016;28;20951;-87
2022/08/10 04:51:00;;;;;;;4.70;4.40;;;16.90;99.90;;;;;;4930591;28;20218;-87
2022/08/10 04:53:26;;;;;;;4.67;4.37;;;16.80;99.90;;;;;;4918469;28;21041;-87
2022/08/10 04:55:57;;;;;;;4.70;4.40;;;16.80;99.90;;;;;;4920582;28;20455;-85
2022/08/10 04:58:25;;;;;;;4.27;3.97;;;16.80;99.90;;;;;;4929720;28;20211;-86
2022/08/10 05:00:50;;;;;;;4.40;3.93;;;16.80;99.90;;;;;;4929714;28;20474;-85
2022/08/10 05:03:18;;;;;;;4.67;4.30;;;16.90;99.90;;;;;;4915837;28;20446;-86
2022/08/10 05:05:46;;;;;;;4.47;4.17;;;16.90;99.90;;;;;;4928800;28;20190;-87
2022/08/10 05:08:11;;;;;;;4.03;3.83;;;17.10;99.90;;;;;;4933069;28;20549;-85
2022/08/10 05:10:37;;;;;;;5.83;4.20;;;17.00;99.90;;;;;;4915918;28;20861;-85
2022/08/10 05:13:04;;;;;;;5.10;4.70;;;17.10;99.90;;;;;;4945716;28;20328;-86
2022/08/10 05:15:30;;;;;;;4.47;4.27;;;17.10;99.90;;;;;;4933225;28;20353;-86
2022/08/10 05:18:06;;;;;;;;;;;;;;;;;;;;;
2022/08/10 05:20:32;;;;;;;4.37;4.07;;;17.40;99.90;;;;;;4931214;28;20485;-85
2022/08/10 05:22:58;;;;;;;4.30;3.90;;;17.50;99.90;;;;;;4919404;28;20563;-85
2022/08/10 05:25:23;;;;;;;4.00;3.47;;;17.60;99.90;;;;;;4919255;28;20201;-85
2022/08/10 05:27:49;;;;;;;3.83;3.53;;;17.80;99.80;;;;;;4932333;28;20291;-84
2022/08/10 05:30:18;;;;;;;3.57;3.37;;;17.90;99.90;;;;;;4924014;28;20272;-86
2022/08/10 05:32:44;;;;;;;4.70;4.30;;;18.00;99.80;;;;;;4917432;28;20555;-85
2022/08/10 05:35:12;;;;;;;3.83;3.53;;;18.10;99.90;;;;;;4930855;28;20440;-85
2022/08/10 05:37:42;;;;;;;4.53;4.03;;;18.00;99.80;;;;;;4919584;28;20439;-85
2022/08/10 05:40:20;;;;;;;4.70;4.17;;;18.30;99.90;;;;;;4909680;28;21025;-85
2022/08/10 05:42:49;;;;;;;4.80;4.50;;;18.40;99.90;;;;;;4921425;28;20733;-86
2022/08/10 05:45:24;;;;;;;3.70;3.50;;;18.40;99.80;;;;;;4924207;28;21503;-86
2022/08/10 05:47:50;;;;;;;3.80;3.60;;;18.50;98.50;;;;;;4941783;28;20449;-84
2022/08/10 05:50:18;;;;;;;3.93;3.63;;;18.50;97.90;;;;;;4918150;28;20449;-85
2022/08/10 05:52:44;;;;;;;4.03;3.73;;;18.60;97.70;;;;;;4936592;28;20190;-86
2022/08/10 05:55:11;;;;;;;4.00;3.80;;;18.60;97.70;;;;;;4922608;28;20453;-86
2022/08/10 05:57:53;;;;;;;3.67;3.47;;;18.60;97.30;;;;;;4938085;28;20195;-85
2022/08/10 06:00:19;;;;;;;4.10;3.70;;;18.70;97.40;;;;;;4925804;28;20534;-85
2022/08/10 06:02:48;;;;;;;3.50;3.30;;;18.80;96.80;;;;;;4939223;28;20442;-85
2022/08/10 06:05:19;;;;;;;3.80;3.57;;;18.80;97.10;;;;;;4920408;28;20194;-85
2022/08/10 06:08:30;;;;;;;3.67;3.47;;;18.90;97.10;;;;;;4938263;28;20486;-86
2022/08/10 06:10:58;;;;;;;3.67;3.47;;;19.00;97.10;;;;;;4920334;28;20443;-86
2022/08/10 06:16:14;;;;;;;4.10;3.80;;;19.20;96.20;;;;;;4942667;28;20453;-85
2022/08/10 06:18:41;;;;;;;3.57;3.30;;;19.20;96.40;;;;;;4938738;28;20489;-85
2022/08/10 06:21:08;;;;;;;4.03;3.63;;;19.20;95.80;;;;;;4927379;28;20483;-86
2022/08/10 06:23:51;;;;;;;4.10;3.70;;;19.30;95.10;;;;;;4939680;28;20881;-85
2022/08/10 06:26:19;;;;;;;3.60;3.30;;;19.70;94.50;;;;;;4935813;28;20533;-86
2022/08/10 06:29:06;;;;;;;4.40;3.23;;;19.60;95.00;;;;;;4921969;28;20439;-84
2022/08/10 06:31:39;;;;;;;3.67;3.30;;;19.80;94.60;;;;;;4920592;28;20470;-87
2022/08/10 06:34:10;;;;;;;3.70;3.50;;;19.90;94.00;;;;;;4933905;28;20438;-85
2022/08/10 06:36:53;;;;;;;;;;;;;;;;;;;;;
2022/08/10 06:39:27;;;;;;;3.33;3.03;;;20.10;94.10;;;;;;4935353;28;21133;-87
2022/08/10 06:42:01;;;;;;;3.80;3.50;;;20.30;93.00;;;;;;4924603;28;20834;-87
2022/08/10 06:44:31;;;;;;;3.27;3.07;;;20.30;93.50;;;;;;4923961;28;20539;-87
2022/08/10 06:47:02;;;;;;;4.17;3.13;;;20.30;93.20;;;;;;4936874;28;20454;-85
2022/08/10 06:49:31;;;;;;;4.40;3.30;;;20.30;92.50;;;;;;4931221;28;20534;-87
2022/08/10 06:52:00;;;;;;;3.30;2.70;;;20.40;92.50;;;;;;4941113;28;20793;-87
2022/08/10 06:54:29;;;;;;;4.17;3.10;;;20.50;92.10;;;;;;4916312;28;20748;-86
2022/08/10 06:56:56;;;;;;;3.27;2.97;;;20.50;92.20;;;;;;4930047;28;20454;-87
2022/08/10 06:59:34;;;;;;;3.20;3.00;;;20.60;91.70;;;;;;4935177;28;20466;-87
2022/08/10 07:02:05;;;;;;;2.70;2.60;;;20.60;92.50;;;;;;4926225;28;20486;-86
2022/08/10 07:04:52;;;;;;;3.40;3.20;;;20.80;92.30;;;;;;4924866;28;20435;-87
2022/08/10 07:07:21;;;;;;;4.20;3.10;;;20.90;91.40;;;;;;4925285;28;20953;-86
2022/08/10 07:09:49;;;;;;;3.37;3.07;;;21.00;91.10;;;;;;4917176;28;20782;-86
2022/08/10 07:12:34;;;;;;;2.80;2.60;;;21.00;91.10;;;;;;4923618;28;20549;-86
2022/08/10 07:15:01;;;;;;;3.33;3.03;;;21.10;91.40;;;;;;4936718;28;20445;-86
2022/08/10 07:17:29;;;;;;;3.40;3.10;;;21.20;91.10;;;;;;4921767;28;20447;-87
2022/08/10 07:19:58;;;;;;;3.53;2.90;;;21.30;91.40;;;;;;4937217;28;20773;-86
2022/08/10 07:22:26;;;;;;;3.57;3.27;;;21.50;90.80;;;;;;4940825;28;21375;-87
2022/08/10 07:24:55;;;;;;;3.57;2.90;;;21.60;90.50;;;;;;4937153;28;20454;-86
2022/08/10 07:27:23;;;;;;;5.77;2.80;;;21.60;90.90;;;;;;4936224;28;20457;-87
2022/08/10 07:29:50;;;;;;;2.70;2.50;;;21.70;90.70;;;;;;4918681;28;20434;-86
2022/08/10 07:32:18;;;;;;;2.90;2.70;;;21.80;90.10;;;;;;4919917;28;20477;-87
2022/08/10 07:34:46;;;;;;;3.07;2.77;;;22.00;89.10;;;;;;4941831;28;20448;-85
2022/08/10 07:37:14;;;;;;;3.77;2.60;;;22.10;88.20;;;;;;4920136;28;20455;-86
2022/08/10 07:39:43;;;;;;;3.27;3.07;;;22.30;89.60;;;;;;4919897;28;20449;-86
2022/08/10 07:42:12;;;;;;;3.93;3.30;;;22.10;87.40;;;;;;4936658;28;20447;-86
2022/08/10 07:44:43;;;;;;;2.90;2.63;;;22.40;88.00;;;;;;4940282;28;20430;-86
2022/08/10 07:47:15;;;;;;;2.97;2.77;;;22.50;88.30;;;;;;4928902;28;20478;-86
2022/08/10 07:49:43;;;;;;;2.80;2.60;;;22.60;87.10;;;;;;4938653;28;20497;-86
2022/08/10 07:52:10;;;;;;;5.03;2.70;;;22.60;86.50;;;;;;4917606;28;20534;-87
2022/08/10 07:54:41;;;;;;;2.90;2.70;;;22.60;87.50;;;;;;4920621;28;20816;-86
2022/08/10 07:57:18;;;;;;;2.90;2.70;;;22.70;86.80;;;;;;4936867;28;20515;-86
2022/08/10 07:59:49;;;;;;;3.17;2.20;;;22.60;85.40;;;;;;4937511;28;20798;-86
2022/08/10 08:02:29;;;;;;;2.90;2.60;;;22.80;85.90;;;;;;4932519;28;20472;-86
2022/08/10 08:05:21;;;;;;;2.90;2.67;;;23.00;84.40;;;;;;4920261;28;20960;-86
2022/08/10 08:07:50;;;;;;;2.30;2.20;;;23.10;84.80;;;;;;4947695;28;20442;-86
2022/08/10 08:10:34;;;;;;;3.10;2.30;;;23.10;82.60;;;;;;4917210;28;20439;-86
2022/08/10 08:13:32;;;;;;;2.53;2.30;;;23.10;83.50;;;;;;4919471;28;20459;-86
2022/08/10 08:16:10;;;;;;;6.37;2.63;;;23.30;83.10;;;;;;4935906;28;21721;-87
2022/08/10 08:18:52;;;;;;;4.53;2.60;;;23.30;82.30;;;;;;4921628;28;20957;-86
2022/08/10 08:21:39;;;;;;;5.83;3.43;;;23.50;82.00;;;;;;4920087;28;20478;-86
2022/08/10 08:24:13;;;;;;;2.63;2.43;;;23.60;81.40;;;;;;4925114;28;20438;-86
2022/08/10 08:26:55;;;;;;;4.17;2.83;;;23.60;80.80;;;;;;4935370;28;20453;-86
2022/08/10 08:29:23;;;;;;;2.80;2.60;;;23.80;79.50;;;;;;4938702;28;20434;-86
2022/08/10 08:31:55;;;;;;;2.50;2.30;;;23.90;78.70;;;;;;4921304;28;20453;-86
2022/08/10 08:34:28;;;;;;;2.97;2.77;;;23.70;78.80;;;;;;4936020;28;20435;-86
2022/08/10 08:36:54;;;;;;;2.60;2.23;;;23.70;78.90;;;;;;4940771;28;20536;-86
2022/08/10 08:39:22;;;;;;;2.40;2.20;;;23.90;78.10;;;;;;4935353;28;20812;-86
2022/08/10 08:41:50;;;;;;;2.37;2.27;;;24.10;80.90;;;;;;4922301;28;20556;-85
2022/08/10 08:44:30;;;;;;;2.87;2.17;;;24.20;75.80;;;;;;4919794;28;20435;-86
2022/08/10 08:47:11;;;;;;;3.83;2.40;;;24.10;75.00;;;;;;4939726;28;20813;-86
2022/08/10 08:50:07;;;;;;;2.10;2.00;;;24.20;75.40;;;;;;4936483;28;20734;-86
2022/08/10 08:52:44;;;;;;;5.10;2.40;;;24.50;79.90;;;;;;4921205;28;21058;-86
2022/08/10 08:55:22;;;;;;;3.17;2.83;;;24.70;76.20;;;;;;4922023;28;20466;-86
2022/08/10 08:58:26;;;;;;;3.67;2.97;;;24.80;74.60;;;;;;4918172;28;20462;-94
2022/08/10 09:01:12;;;;;;;3.37;2.57;;;25.00;74.70;;;;;;4920997;28;20506;-93
2022/08/10 09:04:04;;;;;;;3.20;2.60;;;25.20;73.20;;;;;;4921852;28;20878;-93
2022/08/10 09:07:18;;;;;;;2.20;2.10;;;25.20;70.60;;;;;;4914998;28;20507;-94
2022/08/10 09:10:03;;;;;;;3.13;2.13;;;25.10;71.70;;;;;;4932403;28;20450;-94
2022/08/10 09:12:56;;;;;;;2.30;2.10;;;25.20;69.90;;;;;;4929280;28;20770;-93
2022/08/10 09:16:06;;;;;;;4.17;2.20;;;25.20;66.30;;;;;;4944269;28;20979;-94
2022/08/10 09:19:11;;;;;;;2.83;2.63;;;25.20;67.10;;;;;;4916582;28;20530;-94
2022/08/10 09:22:13;;;;;;;2.33;2.13;;;25.30;67.00;;;;;;4919346;29;20483;-94
2022/08/10 09:25:19;;;;;;;2.30;2.10;;;25.30;64.70;;;;;;4893133;28;20442;-94
2022/08/10 09:27:58;;;;;;;2.53;2.13;;;25.30;68.00;;;;;;4922914;28;20792;-92
2022/08/10 09:30:45;;;;;;;2.57;2.37;;;25.40;65.00;;;;;;4943792;28;20483;-91
2022/08/10 09:33:22;;;;;;;2.43;2.20;;;25.40;64.30;;;;;;4927062;28;20443;-92
2022/08/10 09:36:11;;;;;;;2.03;1.93;;;25.50;62.20;;;;;;4922604;28;20453;-94
2022/08/10 09:39:07;;;;;;;2.30;2.10;;;25.50;62.20;;;;;;4936271;28;20438;-93
2022/08/10 09:41:47;;;;;;;2.00;1.90;;;25.60;62.20;;;;;;4931059;28;20721;-92
2022/08/10 09:44:31;;;;;;;5.73;2.33;;;25.90;65.80;;;;;;4926508;28;20444;-93
2022/08/10 09:47:29;;;;;;;4.13;2.33;;;26.00;59.40;;;;;;4939099;28;20448;-91
2022/08/10 09:50:35;;;;;;;2.33;2.13;;;26.00;61.10;;;;;;4919825;28;20537;-93
2022/08/10 09:53:40;;;;;;;1.90;1.80;;;26.20;61.10;;;;;;4949002;28;20443;-91
2022/08/10 09:57:16;;;;;;;2.70;2.50;;;26.30;60.10;;;;;;4937053;28;20451;-91
2022/08/10 10:03:23;;;;;;;1.90;1.80;;;26.50;56.90;;;;;;4931087;28;20457;-93
2022/08/10 10:06:02;;;;;;;2.20;1.87;;;26.30;57.50;;;;;;4932447;28;20914;-94
2022/08/10 10:08:57;;;;;;;3.53;2.20;;;26.40;57.50;;;;;;4925152;28;20458;-92
2022/08/10 10:11:42;;;;;;;4.43;2.03;;;26.40;56.60;;;;;;4938441;28;20839;-91
2022/08/10 10:15:19;;;;;;;2.20;2.10;;;26.40;58.00;;;;;;4938402;28;20996;-94
2022/08/10 10:17:52;;;;;;;2.90;1.93;;;26.50;55.40;;;;;;4938691;28;20442;-91
2022/08/10 10:20:30;;;;;;;2.20;2.10;;;26.60;55.60;;;;;;4896039;28;20494;-91
2022/08/10 10:23:09;;;;;;;2.10;1.90;;;26.70;54.10;;;;;;4939420;28;20450;-91
2022/08/10 10:25:43;;;;;;;2.60;2.17;;;26.90;54.30;;;;;;4934108;28;20963;-91
2022/08/10 10:28:53;;;;;;;2.40;2.10;;;27.00;55.30;;;;;;4936730;28;20501;-91
2022/08/10 10:31:54;;;;;;;;;;;;;;;;;;;;;
2022/08/10 10:34:48;;;;;;;2.00;1.90;;;26.90;55.20;;;;;;4940412;28;20458;-92
2022/08/10 10:37:16;;;;;;;2.33;2.10;;;26.90;56.20;;;;;;4925638;28;21036;-92
2022/08/10 10:39:46;;;;;;;3.00;2.20;;;26.90;55.50;;;;;;4923050;28;20590;-91
2022/08/10 10:43:08;;;;;;;3.07;2.10;;;27.10;56.20;;;;;;4938395;28;20589;-92
2022/08/10 10:46:03;;;;;;;4.77;2.40;;;27.00;54.70;;;;;;4852024;29;20882;-93
2022/08/10 10:48:51;;;;;;;2.33;2.23;;;27.40;54.50;;;;;;4836465;29;20603;-92
2022/08/10 10:51:42;;;;;;;2.30;2.17;;;27.80;55.20;;;;;;4914873;28;21095;-92
2022/08/10 10:54:34;;;;;;;2.00;1.90;;;27.80;53.90;;;;;;4922277;28;20447;-92
2022/08/10 10:57:34;;;;;;;2.43;2.00;;;27.70;52.80;;;;;;4941323;28;20875;-93
2022/08/10 11:00:08;;;;;;;2.40;1.87;;;27.70;53.20;;;;;;4939772;28;20522;-92
2022/08/10 11:03:02;;;;;;;2.50;2.33;;;27.90;53.30;;;;;;4918960;28;20502;-92
2022/08/10 11:05:41;;;;;;;2.10;2.00;;;28.00;52.00;;;;;;4941112;28;20492;-91
2022/08/10 11:08:18;;;;;;;1.97;1.87;;;28.10;51.80;;;;;;4936682;28;21433;-90
2022/08/10 11:11:15;;;;;;;3.00;2.33;;;28.00;50.40;;;;;;4939938;28;20513;-92
2022/08/10 11:14:12;;;;;;;2.70;1.90;;;27.90;52.90;;;;;;4916468;28;20470;-91
2022/08/10 11:16:50;;;;;;;2.10;2.00;;;28.20;53.90;;;;;;4938972;28;20858;-93
2022/08/10 11:19:27;;;;;;;4.03;2.10;;;28.60;52.90;;;;;;4920789;28;21075;-92
2022/08/10 11:22:19;;;;;;;2.27;1.83;;;28.90;52.30;;;;;;4924630;28;20486;-92
2022/08/10 11:24:55;;;;;;;2.30;2.17;;;28.80;50.40;;;;;;4917258;28;20438;-91
2022/08/10 11:27:37;;;;;;;2.80;2.00;;;28.50;50.00;;;;;;4924250;28;20991;-91
2022/08/10 11:30:11;;;;;;;1.90;1.80;;;28.70;52.00;;;;;;4922598;28;20446;-92
2022/08/10 11:33:02;;;;;;;3.20;2.00;;;28.80;50.20;;;;;;4936252;28;20472;-92
2022/08/10 11:35:59;;;;;;;1.90;1.80;;;28.80;49.70;;;;;;4938333;28;20463;-91
2022/08/10 11:38:58;;;;;;;2.00;1.80;;;28.90;49.30;;;;;;4935244;28;21621;-91
2022/08/10 11:41:43;;;;;;;2.07;1.97;;;28.90;52.20;;;;;;4897859;28;20478;-91
2022/08/10 11:44:29;;;;;;;2.23;2.10;;;29.20;48.70;;;;;;4922497;28;20505;-91
2022/08/10 11:47:14;;;;;;;3.33;2.10;;;29.00;49.30;;;;;;4917796;28;20446;-91
2022/08/10 11:50:06;;;;;;;4.60;1.97;;;28.90;48.70;;;;;;4923578;28;20498;-91
2022/08/10 11:53:01;;;;;;;2.33;2.10;;;28.60;48.90;;;;;;4941181;28;20525;-90
2022/08/10 11:55:53;;;;;;;2.13;2.03;;;28.80;51.30;;;;;;4932943;28;20825;-90
2022/08/10 12:01:25;;;;;;;2.10;1.90;;;28.90;46.80;;;;;;4938075;28;20498;-92
2022/08/10 12:03:51;;;;;;;3.90;2.23;;;28.80;48.50;;;;;;4922623;28;20477;-92
2022/08/10 12:06:19;;;;;;;2.07;1.93;;;28.90;49.40;;;;;;4938518;28;20443;-94
2022/08/10 12:08:53;;;;;;;1.80;1.70;;;29.10;49.20;;;;;;4921095;28;20449;-92
2022/08/10 12:11:49;;;;;;;2.30;2.20;;;29.30;48.90;;;;;;4921189;28;20684;-92
2022/08/10 12:14:29;;;;;;;2.13;2.00;;;29.40;49.00;;;;;;4922155;28;20438;-91
2022/08/10 12:17:09;;;;;;;3.03;1.80;;;29.10;48.10;;;;;;4931467;28;20466;-91
2022/08/10 12:19:51;;;;;;;2.90;1.90;;;29.00;48.10;;;;;;4931280;28;20538;-90
2022/08/10 12:22:26;;;;;;;2.40;2.20;;;28.80;47.60;;;;;;4922074;28;20541;-91
2022/08/10 12:25:02;;;;;;;1.80;1.70;;;28.80;50.70;;;;;;4931038;28;20442;-91
2022/08/10 12:27:51;;;;;;;2.30;2.10;;;29.20;48.20;;;;;;4930529;28;20503;-91
2022/08/10 12:30:36;;;;;;;2.43;2.13;;;29.20;48.70;;;;;;4932182;28;20453;-91
2022/08/10 12:33:21;;;;;;;3.37;2.20;;;29.40;47.30;;;;;;4934047;28;20639;-90
2022/08/10 12:35:58;;;;;;;3.53;2.20;;;29.30;47.60;;;;;;4918435;28;20439;-91
2022/08/10 12:38:45;;;;;;;2.33;2.13;;;29.40;47.90;;;;;;4918686;28;20821;-89
2022/08/10 12:41:29;;;;;;;2.40;2.20;;;29.60;47.20;;;;;;4933324;28;20550;-89
2022/08/10 12:44:05;;;;;;;2.00;1.90;;;29.10;46.70;;;;;;4931419;28;20863;-90
2022/08/10 12:46:48;;;;;;;2.70;2.13;;;29.40;49.20;;;;;;4920927;28;20743;-90
2022/08/10 12:49:32;;;;;;;2.10;1.90;;;29.30;46.50;;;;;;4938658;28;20529;-86
2022/08/10 12:52:44;;;;;;;3.17;1.90;;;29.40;46.30;;;;;;4916733;28;20458;-91
2022/08/10 12:55:12;;;;;;;2.30;2.20;;;29.50;46.70;;;;;;4908703;28;20451;-90
2022/08/10 12:57:39;;;;;;;1.73;1.63;;;29.40;47.70;;;;;;4938525;28;20457;-91
2022/08/10 13:00:17;;;;;;;2.43;2.10;;;29.70;48.00;;;;;;4923061;28;20446;-91
2022/08/10 13:02:47;;;;;;;2.53;2.00;;;29.80;47.60;;;;;;4919941;28;20477;-90
2022/08/10 13:05:14;;;;;;;2.40;1.97;;;30.20;46.20;;;;;;4917084;28;21955;-88
2022/08/10 13:07:43;;;;;;;2.23;2.00;;;30.20;46.70;;;;;;4932832;28;20446;-89
2022/08/10 13:10:13;;;;;;;4.27;2.37;;;30.30;45.90;;;;;;4923087;28;20453;-89
2022/08/10 13:12:45;;;;;;;2.17;1.93;;;30.20;46.30;;;;;;4920018;28;21229;-91
2022/08/10 13:15:29;;;;;;;4.03;2.50;;;30.20;48.00;;;;;;4938724;28;20498;-90
2022/08/10 13:18:09;;;;;;;2.30;2.20;;;30.10;45.80;;;;;;4938737;28;20466;-91
2022/08/10 13:20:40;;;;;;;2.20;2.07;;;30.00;45.80;;;;;;4927359;28;20557;-91
2022/08/10 13:23:25;;;;;;;2.43;2.23;;;30.10;45.40;;;;;;4942079;28;20427;-91
2022/08/10 13:25:53;;;;;;;2.20;2.10;;;30.40;46.20;;;;;;4932616;28;20438;-90
2022/08/10 13:28:46;;;;;;;3.13;2.13;;;30.40;44.10;;;;;;4921847;28;20468;-92
2022/08/10 13:31:28;;;;;;;2.60;2.40;;;30.20;44.50;;;;;;4941767;28;20431;-90
2022/08/10 13:33:59;;;;;;;2.37;2.20;;;30.40;45.70;;;;;;4917343;28;20450;-90
2022/08/10 13:36:35;;;;;;;4.20;2.20;;;30.60;45.70;;;;;;4924082;28;20452;-90
2022/08/10 13:39:01;;;;;;;2.40;2.07;;;30.70;46.80;;;;;;4921982;28;20442;-90
2022/08/10 13:41:31;;;;;;;6.67;2.20;;;31.10;45.00;;;;;;4929074;28;20485;-88
2022/08/10 13:43:59;;;;;;;2.60;2.40;;;31.00;46.10;;;;;;4939952;28;20435;-90
2022/08/10 13:46:58;;;;;;;2.47;2.27;;;31.10;44.30;;;;;;4939867;28;20486;-89
2022/08/10 13:49:40;;;;;;;1.97;1.87;;;30.50;45.10;;;;;;4937095;28;20450;-90
2022/08/10 13:52:15;;;;;;;2.50;2.23;;;30.70;45.70;;;;;;4923801;28;20443;-91